sensor_id;sensor_type;location;lat;lon;timestamp;P1;durP1;ratioP1;P2;durP2;ratioP2
55589;SDS011;41452;42.780;23.116;2023-08-17T00:00:00;16.48;;;10.70;;
55589;SDS011;41452;42.780;23.116;2023-08-17T00:02:28;11.73;;;9.48;;
55589;SDS011;41452;42.780;23.116;2023-08-17T00:04:53;17.67;;;10.70;;
55589;SDS011;41452;42.780;23.116;2023-08-17T00:07:22;15.68;;;10.00;;
55589;SDS011;41452;42.780;23.116;2023-08-17T00:09:47;17.05;;;11.13;;
55589;SDS011;41452;42.780;23.116;2023-08-17T00:12:12;14.82;;;10.50;;
55589;SDS011;41452;42.780;23.116;2023-08-17T00:14:38;11.70;;;9.25;;
55589;SDS011;41452;42.780;23.116;2023-08-17T00:17:03;14.32;;;9.70;;
55589;SDS011;41452;42.780;23.116;2023-08-17T00:19:29;13.13;;;9.65;;
55589;SDS011;41452;42.780;23.116;2023-08-17T00:21:54;14.73;;;9.38;;
55589;SDS011;41452;42.780;23.116;2023-08-17T00:24:20;21.33;;;9.05;;
55589;SDS011;41452;42.780;23.116;2023-08-17T00:26:45;16.38;;;9.57;;
55589;SDS011;41452;42.780;23.116;2023-08-17T00:29:11;13.07;;;9.50;;
55589;SDS011;41452;42.780;23.116;2023-08-17T00:31:36;12.85;;;9.02;;
55589;SDS011;41452;42.780;23.116;2023-08-17T00:34:02;14.48;;;9.35;;
55589;SDS011;41452;42.780;23.116;2023-08-17T00:36:27;17.58;;;9.05;;
55589;SDS011;41452;42.780;23.116;2023-08-17T00:38:53;11.90;;;8.68;;
55589;SDS011;41452;42.780;23.116;2023-08-17T00:41:18;14.10;;;8.27;;
55589;SDS011;41452;42.780;23.116;2023-08-17T00:43:43;11.95;;;8.77;;
55589;SDS011;41452;42.780;23.116;2023-08-17T00:46:09;12.57;;;8.13;;
55589;SDS011;41452;42.780;23.116;2023-08-17T00:48:36;16.58;;;8.13;;
55589;SDS011;41452;42.780;23.116;2023-08-17T00:51:01;10.85;;;7.80;;
55589;SDS011;41452;42.780;23.116;2023-08-17T00:53:27;15.20;;;7.97;;
55589;SDS011;41452;42.780;23.116;2023-08-17T00:55:56;14.65;;;8.15;;
55589;SDS011;41452;42.780;23.116;2023-08-17T00:58:22;13.98;;;7.18;;
55589;SDS011;41452;42.780;23.116;2023-08-17T01:00:47;12.35;;;7.65;;
55589;SDS011;41452;42.780;23.116;2023-08-17T01:03:13;14.15;;;7.18;;
55589;SDS011;41452;42.780;23.116;2023-08-17T01:05:40;9.73;;;6.95;;
55589;SDS011;41452;42.780;23.116;2023-08-17T01:08:05;9.95;;;6.85;;
55589;SDS011;41452;42.780;23.116;2023-08-17T01:10:32;8.90;;;6.57;;
55589;SDS011;41452;42.780;23.116;2023-08-17T01:13:09;15.27;;;7.18;;
55589;SDS011;41452;42.780;23.116;2023-08-17T01:15:45;9.80;;;6.38;;
55589;SDS011;41452;42.780;23.116;2023-08-17T01:18:22;12.25;;;6.72;;
55589;SDS011;41452;42.780;23.116;2023-08-17T01:20:52;10.38;;;6.30;;
55589;SDS011;41452;42.780;23.116;2023-08-17T01:23:18;12.70;;;6.88;;
55589;SDS011;41452;42.780;23.116;2023-08-17T01:25:44;11.82;;;6.95;;
55589;SDS011;41452;42.780;23.116;2023-08-17T01:28:10;14.48;;;6.43;;
55589;SDS011;41452;42.780;23.116;2023-08-17T01:30:44;7.50;;;5.95;;
55589;SDS011;41452;42.780;23.116;2023-08-17T01:33:17;11.07;;;6.00;;
55589;SDS011;41452;42.780;23.116;2023-08-17T01:36:11;10.75;;;6.45;;
55589;SDS011;41452;42.780;23.116;2023-08-17T01:38:44;9.10;;;6.00;;
55589;SDS011;41452;42.780;23.116;2023-08-17T01:41:11;12.40;;;5.80;;
55589;SDS011;41452;42.780;23.116;2023-08-17T01:43:43;9.48;;;5.78;;
55589;SDS011;41452;42.780;23.116;2023-08-17T01:46:14;9.52;;;6.57;;
55589;SDS011;41452;42.780;23.116;2023-08-17T01:48:40;11.55;;;6.13;;
55589;SDS011;41452;42.780;23.116;2023-08-17T02:06:34;10.00;;;5.30;;
55589;SDS011;41452;42.780;23.116;2023-08-17T02:08:59;9.65;;;5.63;;
55589;SDS011;41452;42.780;23.116;2023-08-17T02:11:25;9.75;;;5.68;;
55589;SDS011;41452;42.780;23.116;2023-08-17T02:13:50;9.65;;;5.72;;
55589;SDS011;41452;42.780;23.116;2023-08-17T02:16:15;7.88;;;5.38;;
55589;SDS011;41452;42.780;23.116;2023-08-17T02:18:41;8.10;;;5.75;;
55589;SDS011;41452;42.780;23.116;2023-08-17T02:21:06;13.63;;;5.15;;
55589;SDS011;41452;42.780;23.116;2023-08-17T02:23:31;10.48;;;6.05;;
55589;SDS011;41452;42.780;23.116;2023-08-17T02:25:57;7.78;;;5.25;;
55589;SDS011;41452;42.780;23.116;2023-08-17T02:28:22;8.45;;;5.25;;
55589;SDS011;41452;42.780;23.116;2023-08-17T02:30:48;9.32;;;5.47;;
55589;SDS011;41452;42.780;23.116;2023-08-17T02:33:14;8.15;;;5.05;;
55589;SDS011;41452;42.780;23.116;2023-08-17T02:35:39;15.02;;;6.03;;
55589;SDS011;41452;42.780;23.116;2023-08-17T02:38:04;8.15;;;5.35;;
55589;SDS011;41452;42.780;23.116;2023-08-17T02:40:30;9.25;;;5.90;;
55589;SDS011;41452;42.780;23.116;2023-08-17T02:42:55;10.57;;;5.57;;
55589;SDS011;41452;42.780;23.116;2023-08-17T02:45:20;10.00;;;4.97;;
55589;SDS011;41452;42.780;23.116;2023-08-17T02:47:46;9.13;;;5.40;;
55589;SDS011;41452;42.780;23.116;2023-08-17T02:50:11;13.40;;;5.28;;
55589;SDS011;41452;42.780;23.116;2023-08-17T02:52:37;10.50;;;5.57;;
55589;SDS011;41452;42.780;23.116;2023-08-17T02:55:02;12.75;;;5.28;;
55589;SDS011;41452;42.780;23.116;2023-08-17T02:57:28;7.55;;;5.20;;
55589;SDS011;41452;42.780;23.116;2023-08-17T02:59:53;8.05;;;5.35;;
55589;SDS011;41452;42.780;23.116;2023-08-17T03:02:18;6.40;;;4.80;;
55589;SDS011;41452;42.780;23.116;2023-08-17T03:04:44;9.18;;;5.25;;
55589;SDS011;41452;42.780;23.116;2023-08-17T03:07:09;9.07;;;5.30;;
55589;SDS011;41452;42.780;23.116;2023-08-17T03:09:34;12.10;;;5.03;;
55589;SDS011;41452;42.780;23.116;2023-08-17T03:12:00;10.75;;;5.20;;
55589;SDS011;41452;42.780;23.116;2023-08-17T03:14:25;15.55;;;5.43;;
55589;SDS011;41452;42.780;23.116;2023-08-17T03:16:50;7.22;;;5.22;;
55589;SDS011;41452;42.780;23.116;2023-08-17T03:19:16;5.90;;;4.97;;
55589;SDS011;41452;42.780;23.116;2023-08-17T03:21:42;8.05;;;5.38;;
55589;SDS011;41452;42.780;23.116;2023-08-17T03:24:08;10.70;;;5.78;;
55589;SDS011;41452;42.780;23.116;2023-08-17T03:26:33;13.95;;;6.25;;
55589;SDS011;41452;42.780;23.116;2023-08-17T03:28:58;9.10;;;5.90;;
55589;SDS011;41452;42.780;23.116;2023-08-17T03:31:24;8.55;;;6.10;;
55589;SDS011;41452;42.780;23.116;2023-08-17T03:33:49;8.05;;;5.65;;
55589;SDS011;41452;42.780;23.116;2023-08-17T03:36:15;8.98;;;5.45;;
55589;SDS011;41452;42.780;23.116;2023-08-17T03:38:40;7.78;;;5.40;;
55589;SDS011;41452;42.780;23.116;2023-08-17T03:41:06;13.38;;;5.78;;
55589;SDS011;41452;42.780;23.116;2023-08-17T03:43:31;8.25;;;5.40;;
55589;SDS011;41452;42.780;23.116;2023-08-17T03:45:57;12.05;;;6.05;;
55589;SDS011;41452;42.780;23.116;2023-08-17T03:48:22;9.20;;;5.95;;
55589;SDS011;41452;42.780;23.116;2023-08-17T03:50:54;8.75;;;6.18;;
55589;SDS011;41452;42.780;23.116;2023-08-17T03:53:20;8.07;;;5.72;;
55589;SDS011;41452;42.780;23.116;2023-08-17T03:55:49;10.60;;;7.70;;
55589;SDS011;41452;42.780;23.116;2023-08-17T03:58:15;9.75;;;6.03;;
55589;SDS011;41452;42.780;23.116;2023-08-17T04:00:41;7.75;;;6.13;;
55589;SDS011;41452;42.780;23.116;2023-08-17T04:03:08;7.93;;;5.88;;
55589;SDS011;41452;42.780;23.116;2023-08-17T04:05:33;9.30;;;5.93;;
55589;SDS011;41452;42.780;23.116;2023-08-17T04:08:00;10.95;;;6.07;;
55589;SDS011;41452;42.780;23.116;2023-08-17T04:10:27;23.15;;;7.07;;
55589;SDS011;41452;42.780;23.116;2023-08-17T04:12:53;14.65;;;7.82;;
55589;SDS011;41452;42.780;23.116;2023-08-17T04:15:19;10.27;;;7.15;;
55589;SDS011;41452;42.780;23.116;2023-08-17T04:17:44;10.55;;;6.45;;
55589;SDS011;41452;42.780;23.116;2023-08-17T04:20:09;13.05;;;6.43;;
55589;SDS011;41452;42.780;23.116;2023-08-17T04:22:35;10.07;;;6.72;;
55589;SDS011;41452;42.780;23.116;2023-08-17T04:25:01;11.38;;;6.40;;
55589;SDS011;41452;42.780;23.116;2023-08-17T04:27:26;12.27;;;6.78;;
55589;SDS011;41452;42.780;23.116;2023-08-17T04:29:51;11.25;;;7.55;;
55589;SDS011;41452;42.780;23.116;2023-08-17T04:32:17;14.98;;;7.50;;
55589;SDS011;41452;42.780;23.116;2023-08-17T04:34:45;10.13;;;6.88;;
55589;SDS011;41452;42.780;23.116;2023-08-17T04:37:11;14.40;;;6.97;;
55589;SDS011;41452;42.780;23.116;2023-08-17T04:39:37;9.80;;;7.63;;
55589;SDS011;41452;42.780;23.116;2023-08-17T04:42:03;10.35;;;7.20;;
55589;SDS011;41452;42.780;23.116;2023-08-17T04:44:29;12.85;;;7.28;;
55589;SDS011;41452;42.780;23.116;2023-08-17T04:46:54;11.88;;;6.90;;
55589;SDS011;41452;42.780;23.116;2023-08-17T04:54:30;17.20;;;8.13;;
55589;SDS011;41452;42.780;23.116;2023-08-17T04:56:55;17.95;;;8.60;;
55589;SDS011;41452;42.780;23.116;2023-08-17T04:59:21;11.32;;;8.60;;
55589;SDS011;41452;42.780;23.116;2023-08-17T05:01:46;11.07;;;8.20;;
55589;SDS011;41452;42.780;23.116;2023-08-17T05:04:12;14.02;;;8.60;;
55589;SDS011;41452;42.780;23.116;2023-08-17T05:06:37;19.35;;;8.57;;
55589;SDS011;41452;42.780;23.116;2023-08-17T05:09:03;14.90;;;9.73;;
55589;SDS011;41452;42.780;23.116;2023-08-17T05:11:30;15.38;;;9.43;;
55589;SDS011;41452;42.780;23.116;2023-08-17T05:13:55;16.40;;;8.48;;
55589;SDS011;41452;42.780;23.116;2023-08-17T05:16:20;17.10;;;9.30;;
55589;SDS011;41452;42.780;23.116;2023-08-17T05:18:47;14.32;;;8.48;;
55589;SDS011;41452;42.780;23.116;2023-08-17T05:21:12;10.95;;;8.27;;
55589;SDS011;41452;42.780;23.116;2023-08-17T05:23:38;12.35;;;8.05;;
55589;SDS011;41452;42.780;23.116;2023-08-17T05:26:03;13.95;;;8.95;;
55589;SDS011;41452;42.780;23.116;2023-08-17T05:28:28;14.88;;;9.65;;
55589;SDS011;41452;42.780;23.116;2023-08-17T05:30:54;16.70;;;9.20;;
55589;SDS011;41452;42.780;23.116;2023-08-17T05:33:19;13.98;;;8.45;;
55589;SDS011;41452;42.780;23.116;2023-08-17T05:35:44;13.52;;;8.48;;
55589;SDS011;41452;42.780;23.116;2023-08-17T05:38:10;11.90;;;8.07;;
55589;SDS011;41452;42.780;23.116;2023-08-17T05:40:35;19.05;;;8.80;;
55589;SDS011;41452;42.780;23.116;2023-08-17T05:43:01;17.58;;;9.05;;
55589;SDS011;41452;42.780;23.116;2023-08-17T05:45:26;14.05;;;8.75;;
55589;SDS011;41452;42.780;23.116;2023-08-17T05:47:52;11.80;;;8.63;;
55589;SDS011;41452;42.780;23.116;2023-08-17T05:50:17;12.57;;;8.27;;
55589;SDS011;41452;42.780;23.116;2023-08-17T05:52:43;13.93;;;8.85;;
55589;SDS011;41452;42.780;23.116;2023-08-17T05:55:08;17.75;;;9.30;;
55589;SDS011;41452;42.780;23.116;2023-08-17T05:57:34;14.98;;;9.10;;
55589;SDS011;41452;42.780;23.116;2023-08-17T05:59:59;11.95;;;8.48;;
55589;SDS011;41452;42.780;23.116;2023-08-17T06:02:24;17.58;;;8.82;;
55589;SDS011;41452;42.780;23.116;2023-08-17T06:04:50;15.57;;;9.52;;
55589;SDS011;41452;42.780;23.116;2023-08-17T06:07:15;12.73;;;8.52;;
55589;SDS011;41452;42.780;23.116;2023-08-17T06:09:41;12.85;;;9.20;;
55589;SDS011;41452;42.780;23.116;2023-08-17T06:12:06;22.67;;;9.80;;
55589;SDS011;41452;42.780;23.116;2023-08-17T06:14:32;16.08;;;8.38;;
55589;SDS011;41452;42.780;23.116;2023-08-17T06:16:58;19.10;;;8.52;;
55589;SDS011;41452;42.780;23.116;2023-08-17T06:19:24;18.50;;;9.45;;
55589;SDS011;41452;42.780;23.116;2023-08-17T06:21:49;15.63;;;8.80;;
55589;SDS011;41452;42.780;23.116;2023-08-17T06:24:14;14.52;;;8.88;;
55589;SDS011;41452;42.780;23.116;2023-08-17T06:26:40;13.38;;;9.13;;
55589;SDS011;41452;42.780;23.116;2023-08-17T06:29:05;12.60;;;9.10;;
55589;SDS011;41452;42.780;23.116;2023-08-17T06:31:30;13.98;;;8.85;;
55589;SDS011;41452;42.780;23.116;2023-08-17T06:33:56;20.83;;;8.57;;
55589;SDS011;41452;42.780;23.116;2023-08-17T06:36:22;14.32;;;9.35;;
55589;SDS011;41452;42.780;23.116;2023-08-17T06:38:47;14.00;;;9.10;;
55589;SDS011;41452;42.780;23.116;2023-08-17T06:41:12;19.35;;;9.05;;
55589;SDS011;41452;42.780;23.116;2023-08-17T06:43:38;12.93;;;8.25;;
55589;SDS011;41452;42.780;23.116;2023-08-17T06:46:03;20.02;;;8.98;;
55589;SDS011;41452;42.780;23.116;2023-08-17T06:48:29;13.30;;;8.60;;
55589;SDS011;41452;42.780;23.116;2023-08-17T06:50:56;10.20;;;8.18;;
55589;SDS011;41452;42.780;23.116;2023-08-17T06:53:22;17.15;;;8.75;;
55589;SDS011;41452;42.780;23.116;2023-08-17T06:55:47;15.32;;;8.90;;
55589;SDS011;41452;42.780;23.116;2023-08-17T06:58:12;12.57;;;8.10;;
55589;SDS011;41452;42.780;23.116;2023-08-17T07:00:38;12.02;;;8.52;;
55589;SDS011;41452;42.780;23.116;2023-08-17T07:10:51;9.88;;;6.45;;
55589;SDS011;41452;42.780;23.116;2023-08-17T07:13:16;12.25;;;7.15;;
55589;SDS011;41452;42.780;23.116;2023-08-17T07:15:41;7.95;;;4.72;;
55589;SDS011;41452;42.780;23.116;2023-08-17T07:18:07;11.15;;;5.90;;
55589;SDS011;41452;42.780;23.116;2023-08-17T07:20:32;8.80;;;5.45;;
55589;SDS011;41452;42.780;23.116;2023-08-17T07:22:57;12.68;;;6.22;;
55589;SDS011;41452;42.780;23.116;2023-08-17T07:25:23;7.38;;;5.18;;
55589;SDS011;41452;42.780;23.116;2023-08-17T07:27:49;9.07;;;5.28;;
55589;SDS011;41452;42.780;23.116;2023-08-17T07:30:14;8.75;;;5.25;;
55589;SDS011;41452;42.780;23.116;2023-08-17T07:32:40;12.02;;;5.30;;
55589;SDS011;41452;42.780;23.116;2023-08-17T07:35:05;11.13;;;5.68;;
55589;SDS011;41452;42.780;23.116;2023-08-17T07:37:31;9.07;;;5.00;;
55589;SDS011;41452;42.780;23.116;2023-08-17T07:39:58;8.38;;;5.10;;
55589;SDS011;41452;42.780;23.116;2023-08-17T07:42:24;10.60;;;4.72;;
55589;SDS011;41452;42.780;23.116;2023-08-17T07:44:50;7.13;;;4.05;;
55589;SDS011;41452;42.780;23.116;2023-08-17T07:47:15;5.85;;;3.63;;
55589;SDS011;41452;42.780;23.116;2023-08-17T07:49:40;7.38;;;4.22;;
55589;SDS011;41452;42.780;23.116;2023-08-17T07:52:06;14.55;;;4.18;;
55589;SDS011;41452;42.780;23.116;2023-08-17T07:54:31;11.60;;;4.30;;
55589;SDS011;41452;42.780;23.116;2023-08-17T07:56:57;10.05;;;4.80;;
55589;SDS011;41452;42.780;23.116;2023-08-17T07:59:22;6.00;;;4.45;;
55589;SDS011;41452;42.780;23.116;2023-08-17T08:01:47;25.77;;;4.60;;
55589;SDS011;41452;42.780;23.116;2023-08-17T08:04:13;9.18;;;4.32;;
55589;SDS011;41452;42.780;23.116;2023-08-17T08:06:38;9.65;;;4.15;;
55589;SDS011;41452;42.780;23.116;2023-08-17T08:09:04;9.07;;;4.20;;
55589;SDS011;41452;42.780;23.116;2023-08-17T08:11:29;10.32;;;3.88;;
55589;SDS011;41452;42.780;23.116;2023-08-17T08:13:56;9.13;;;3.72;;
55589;SDS011;41452;42.780;23.116;2023-08-17T08:16:22;7.53;;;4.43;;
55589;SDS011;41452;42.780;23.116;2023-08-17T08:18:47;7.10;;;3.92;;
55589;SDS011;41452;42.780;23.116;2023-08-17T08:21:12;5.72;;;4.10;;
55589;SDS011;41452;42.780;23.116;2023-08-17T08:23:38;8.43;;;4.45;;
55589;SDS011;41452;42.780;23.116;2023-08-17T08:26:03;8.20;;;2.80;;
55589;SDS011;41452;42.780;23.116;2023-08-17T08:28:28;6.25;;;2.90;;
55589;SDS011;41452;42.780;23.116;2023-08-17T08:30:54;7.65;;;3.45;;
55589;SDS011;41452;42.780;23.116;2023-08-17T08:33:19;6.63;;;2.92;;
55589;SDS011;41452;42.780;23.116;2023-08-17T08:35:45;6.78;;;3.60;;
55589;SDS011;41452;42.780;23.116;2023-08-17T08:38:10;10.25;;;3.75;;
55589;SDS011;41452;42.780;23.116;2023-08-17T08:40:36;5.82;;;3.55;;
55589;SDS011;41452;42.780;23.116;2023-08-17T08:43:03;6.15;;;3.33;;
55589;SDS011;41452;42.780;23.116;2023-08-17T08:45:29;5.15;;;3.20;;
55589;SDS011;41452;42.780;23.116;2023-08-17T08:47:56;9.18;;;3.50;;
55589;SDS011;41452;42.780;23.116;2023-08-17T08:50:22;6.05;;;2.83;;
55589;SDS011;41452;42.780;23.116;2023-08-17T08:52:58;8.38;;;3.40;;
55589;SDS011;41452;42.780;23.116;2023-08-17T08:55:26;9.07;;;3.97;;
55589;SDS011;41452;42.780;23.116;2023-08-17T08:57:54;6.55;;;3.33;;
55589;SDS011;41452;42.780;23.116;2023-08-17T09:00:21;6.20;;;3.78;;
55589;SDS011;41452;42.780;23.116;2023-08-17T09:02:47;6.82;;;3.17;;
55589;SDS011;41452;42.780;23.116;2023-08-17T09:05:14;9.68;;;2.83;;
55589;SDS011;41452;42.780;23.116;2023-08-17T09:07:40;5.22;;;2.40;;
55589;SDS011;41452;42.780;23.116;2023-08-17T09:10:08;4.95;;;3.00;;
55589;SDS011;41452;42.780;23.116;2023-08-17T09:12:34;6.30;;;3.60;;
55589;SDS011;41452;42.780;23.116;2023-08-17T09:15:00;6.30;;;2.92;;
55589;SDS011;41452;42.780;23.116;2023-08-17T09:17:26;6.75;;;3.25;;
55589;SDS011;41452;42.780;23.116;2023-08-17T09:19:52;7.20;;;3.22;;
55589;SDS011;41452;42.780;23.116;2023-08-17T09:22:36;10.57;;;2.75;;
55589;SDS011;41452;42.780;23.116;2023-08-17T09:25:02;5.80;;;2.70;;
55589;SDS011;41452;42.780;23.116;2023-08-17T09:27:27;4.78;;;2.40;;
55589;SDS011;41452;42.780;23.116;2023-08-17T09:29:53;5.93;;;3.22;;
55589;SDS011;41452;42.780;23.116;2023-08-17T09:32:29;5.97;;;3.20;;
55589;SDS011;41452;42.780;23.116;2023-08-17T09:34:55;5.80;;;2.67;;
55589;SDS011;41452;42.780;23.116;2023-08-17T09:37:20;7.22;;;3.28;;
55589;SDS011;41452;42.780;23.116;2023-08-17T09:39:46;10.48;;;3.22;;
55589;SDS011;41452;42.780;23.116;2023-08-17T09:42:11;4.90;;;2.75;;
55589;SDS011;41452;42.780;23.116;2023-08-17T09:44:37;6.75;;;4.20;;
55589;SDS011;41452;42.780;23.116;2023-08-17T09:47:04;4.78;;;2.58;;
55589;SDS011;41452;42.780;23.116;2023-08-17T09:49:31;8.13;;;2.70;;
55589;SDS011;41452;42.780;23.116;2023-08-17T09:51:59;5.50;;;2.55;;
55589;SDS011;41452;42.780;23.116;2023-08-17T09:54:27;7.13;;;2.40;;
55589;SDS011;41452;42.780;23.116;2023-08-17T09:56:56;6.93;;;3.53;;
55589;SDS011;41452;42.780;23.116;2023-08-17T09:59:22;6.00;;;3.25;;
55589;SDS011;41452;42.780;23.116;2023-08-17T10:01:49;9.30;;;3.90;;
55589;SDS011;41452;42.780;23.116;2023-08-17T10:04:18;9.05;;;3.63;;
55589;SDS011;41452;42.780;23.116;2023-08-17T10:06:47;13.65;;;3.28;;
55589;SDS011;41452;42.780;23.116;2023-08-17T10:09:17;6.03;;;2.35;;
55589;SDS011;41452;42.780;23.116;2023-08-17T10:11:51;6.00;;;3.08;;
55589;SDS011;41452;42.780;23.116;2023-08-17T10:14:18;7.32;;;4.05;;
55589;SDS011;41452;42.780;23.116;2023-08-17T10:16:49;8.07;;;4.38;;
55589;SDS011;41452;42.780;23.116;2023-08-17T10:19:24;8.00;;;3.67;;
55589;SDS011;41452;42.780;23.116;2023-08-17T10:22:15;12.98;;;3.85;;
55589;SDS011;41452;42.780;23.116;2023-08-17T10:24:43;5.28;;;3.70;;
55589;SDS011;41452;42.780;23.116;2023-08-17T10:27:10;6.13;;;2.70;;
55589;SDS011;41452;42.780;23.116;2023-08-17T10:29:38;3.75;;;2.30;;
55589;SDS011;41452;42.780;23.116;2023-08-17T10:32:05;4.53;;;2.65;;
55589;SDS011;41452;42.780;23.116;2023-08-17T10:34:31;9.45;;;3.47;;
55589;SDS011;41452;42.780;23.116;2023-08-17T10:36:56;5.88;;;3.05;;
55589;SDS011;41452;42.780;23.116;2023-08-17T10:39:25;7.43;;;3.30;;
55589;SDS011;41452;42.780;23.116;2023-08-17T10:41:52;10.77;;;3.20;;
55589;SDS011;41452;42.780;23.116;2023-08-17T10:44:18;5.38;;;2.90;;
55589;SDS011;41452;42.780;23.116;2023-08-17T10:52:33;5.53;;;2.20;;
55589;SDS011;41452;42.780;23.116;2023-08-17T10:55:01;7.07;;;2.47;;
55589;SDS011;41452;42.780;23.116;2023-08-17T10:57:36;5.03;;;2.33;;
55589;SDS011;41452;42.780;23.116;2023-08-17T11:03:01;4.80;;;2.95;;
55589;SDS011;41452;42.780;23.116;2023-08-17T11:06:13;6.88;;;3.67;;
55589;SDS011;41452;42.780;23.116;2023-08-17T11:13:33;4.68;;;2.80;;
55589;SDS011;41452;42.780;23.116;2023-08-17T11:16:00;6.25;;;2.80;;
55589;SDS011;41452;42.780;23.116;2023-08-17T11:18:26;12.25;;;3.00;;
55589;SDS011;41452;42.780;23.116;2023-08-17T11:20:52;6.90;;;3.00;;
55589;SDS011;41452;42.780;23.116;2023-08-17T11:23:18;7.57;;;2.53;;
55589;SDS011;41452;42.780;23.116;2023-08-17T11:25:44;4.45;;;2.80;;
55589;SDS011;41452;42.780;23.116;2023-08-17T11:28:09;10.85;;;3.22;;
55589;SDS011;41452;42.780;23.116;2023-08-17T11:30:35;8.73;;;2.90;;
55589;SDS011;41452;42.780;23.116;2023-08-17T11:33:03;7.72;;;2.70;;
55589;SDS011;41452;42.780;23.116;2023-08-17T11:35:30;6.35;;;3.20;;
55589;SDS011;41452;42.780;23.116;2023-08-17T11:37:55;5.90;;;3.03;;
55589;SDS011;41452;42.780;23.116;2023-08-17T11:40:21;5.25;;;2.92;;
55589;SDS011;41452;42.780;23.116;2023-08-17T11:42:46;5.50;;;2.50;;
55589;SDS011;41452;42.780;23.116;2023-08-17T11:45:13;6.18;;;2.95;;
55589;SDS011;41452;42.780;23.116;2023-08-17T11:47:39;5.28;;;2.65;;
55589;SDS011;41452;42.780;23.116;2023-08-17T11:50:06;5.22;;;2.97;;
55589;SDS011;41452;42.780;23.116;2023-08-17T11:52:33;8.45;;;2.97;;
55589;SDS011;41452;42.780;23.116;2023-08-17T11:54:59;7.90;;;3.15;;
55589;SDS011;41452;42.780;23.116;2023-08-17T11:57:25;5.85;;;3.30;;
55589;SDS011;41452;42.780;23.116;2023-08-17T11:59:54;9.23;;;3.22;;
55589;SDS011;41452;42.780;23.116;2023-08-17T12:02:22;7.15;;;3.72;;
55589;SDS011;41452;42.780;23.116;2023-08-17T12:04:49;5.78;;;2.90;;
55589;SDS011;41452;42.780;23.116;2023-08-17T12:07:15;8.40;;;3.20;;
55589;SDS011;41452;42.780;23.116;2023-08-17T12:09:42;7.20;;;3.13;;
55589;SDS011;41452;42.780;23.116;2023-08-17T12:12:09;6.93;;;3.42;;
55589;SDS011;41452;42.780;23.116;2023-08-17T12:14:34;6.72;;;3.05;;
55589;SDS011;41452;42.780;23.116;2023-08-17T12:17:00;6.10;;;3.05;;
55589;SDS011;41452;42.780;23.116;2023-08-17T12:19:25;6.65;;;3.08;;
55589;SDS011;41452;42.780;23.116;2023-08-17T12:21:50;7.40;;;3.10;;
55589;SDS011;41452;42.780;23.116;2023-08-17T12:24:16;6.10;;;3.08;;
55589;SDS011;41452;42.780;23.116;2023-08-17T12:26:44;4.40;;;2.70;;
55589;SDS011;41452;42.780;23.116;2023-08-17T12:29:11;9.73;;;3.33;;
55589;SDS011;41452;42.780;23.116;2023-08-17T12:31:36;13.57;;;3.85;;
55589;SDS011;41452;42.780;23.116;2023-08-17T12:34:02;6.47;;;3.35;;
55589;SDS011;41452;42.780;23.116;2023-08-17T12:36:28;5.60;;;2.90;;
55589;SDS011;41452;42.780;23.116;2023-08-17T12:38:54;4.28;;;2.63;;
55589;SDS011;41452;42.780;23.116;2023-08-17T12:41:20;9.60;;;3.17;;
55589;SDS011;41452;42.780;23.116;2023-08-17T12:43:45;9.48;;;3.47;;
55589;SDS011;41452;42.780;23.116;2023-08-17T12:46:11;5.07;;;3.13;;
55589;SDS011;41452;42.780;23.116;2023-08-17T12:48:36;6.80;;;3.67;;
55589;SDS011;41452;42.780;23.116;2023-08-17T12:51:03;7.00;;;3.05;;
55589;SDS011;41452;42.780;23.116;2023-08-17T12:53:28;6.05;;;3.05;;
55589;SDS011;41452;42.780;23.116;2023-08-17T12:55:53;12.10;;;3.15;;
55589;SDS011;41452;42.780;23.116;2023-08-17T12:58:19;7.95;;;3.17;;
55589;SDS011;41452;42.780;23.116;2023-08-17T13:00:44;6.32;;;3.30;;
55589;SDS011;41452;42.780;23.116;2023-08-17T13:03:09;6.35;;;3.28;;
55589;SDS011;41452;42.780;23.116;2023-08-17T13:05:35;6.93;;;2.63;;
55589;SDS011;41452;42.780;23.116;2023-08-17T13:08:00;5.80;;;3.65;;
55589;SDS011;41452;42.780;23.116;2023-08-17T13:10:25;31.80;;;4.82;;
55589;SDS011;41452;42.780;23.116;2023-08-17T13:12:51;9.32;;;3.08;;
55589;SDS011;41452;42.780;23.116;2023-08-17T13:15:20;5.85;;;3.47;;
55589;SDS011;41452;42.780;23.116;2023-08-17T13:17:46;6.40;;;3.17;;
55589;SDS011;41452;42.780;23.116;2023-08-17T13:20:12;7.03;;;3.35;;
55589;SDS011;41452;42.780;23.116;2023-08-17T13:22:37;5.75;;;3.22;;
55589;SDS011;41452;42.780;23.116;2023-08-17T13:25:03;5.45;;;3.30;;
55589;SDS011;41452;42.780;23.116;2023-08-17T13:27:28;6.00;;;3.42;;
55589;SDS011;41452;42.780;23.116;2023-08-17T13:29:54;4.60;;;3.05;;
55589;SDS011;41452;42.780;23.116;2023-08-17T13:32:19;7.13;;;2.90;;
55589;SDS011;41452;42.780;23.116;2023-08-17T13:34:45;7.28;;;2.78;;
55589;SDS011;41452;42.780;23.116;2023-08-17T13:37:10;5.80;;;3.08;;
55589;SDS011;41452;42.780;23.116;2023-08-17T13:39:35;4.68;;;2.83;;
55589;SDS011;41452;42.780;23.116;2023-08-17T13:42:01;7.90;;;2.75;;
55589;SDS011;41452;42.780;23.116;2023-08-17T13:44:26;8.35;;;3.35;;
55589;SDS011;41452;42.780;23.116;2023-08-17T13:46:51;6.07;;;3.10;;
55589;SDS011;41452;42.780;23.116;2023-08-17T13:49:17;8.13;;;3.22;;
55589;SDS011;41452;42.780;23.116;2023-08-17T13:51:42;9.40;;;3.47;;
55589;SDS011;41452;42.780;23.116;2023-08-17T13:54:07;7.90;;;3.30;;
55589;SDS011;41452;42.780;23.116;2023-08-17T13:56:33;6.22;;;3.25;;
55589;SDS011;41452;42.780;23.116;2023-08-17T13:58:58;5.22;;;3.03;;
55589;SDS011;41452;42.780;23.116;2023-08-17T14:01:24;6.20;;;3.42;;
55589;SDS011;41452;42.780;23.116;2023-08-17T14:03:49;7.65;;;3.30;;
55589;SDS011;41452;42.780;23.116;2023-08-17T14:06:15;7.22;;;3.35;;
55589;SDS011;41452;42.780;23.116;2023-08-17T14:08:40;4.70;;;3.20;;
55589;SDS011;41452;42.780;23.116;2023-08-17T14:11:06;9.88;;;3.20;;
55589;SDS011;41452;42.780;23.116;2023-08-17T14:13:32;9.77;;;2.88;;
55589;SDS011;41452;42.780;23.116;2023-08-17T14:15:58;6.65;;;2.90;;
55589;SDS011;41452;42.780;23.116;2023-08-17T14:18:24;4.93;;;3.13;;
55589;SDS011;41452;42.780;23.116;2023-08-17T14:20:50;6.55;;;2.95;;
55589;SDS011;41452;42.780;23.116;2023-08-17T14:23:15;5.90;;;2.58;;
55589;SDS011;41452;42.780;23.116;2023-08-17T14:25:40;9.55;;;3.05;;
55589;SDS011;41452;42.780;23.116;2023-08-17T14:28:06;8.30;;;3.00;;
55589;SDS011;41452;42.780;23.116;2023-08-17T14:30:32;7.50;;;2.95;;
55589;SDS011;41452;42.780;23.116;2023-08-17T14:32:58;7.38;;;2.50;;
55589;SDS011;41452;42.780;23.116;2023-08-17T14:35:23;3.97;;;2.47;;
55589;SDS011;41452;42.780;23.116;2023-08-17T14:37:49;6.80;;;3.00;;
55589;SDS011;41452;42.780;23.116;2023-08-17T14:40:14;4.50;;;3.20;;
55589;SDS011;41452;42.780;23.116;2023-08-17T14:42:39;4.85;;;3.13;;
55589;SDS011;41452;42.780;23.116;2023-08-17T14:45:05;4.60;;;2.97;;
55589;SDS011;41452;42.780;23.116;2023-08-17T14:47:31;5.90;;;3.00;;
55589;SDS011;41452;42.780;23.116;2023-08-17T14:49:56;6.03;;;2.90;;
55589;SDS011;41452;42.780;23.116;2023-08-17T14:52:21;6.47;;;3.20;;
55589;SDS011;41452;42.780;23.116;2023-08-17T14:54:47;7.15;;;3.60;;
55589;SDS011;41452;42.780;23.116;2023-08-17T14:57:12;6.57;;;3.03;;
55589;SDS011;41452;42.780;23.116;2023-08-17T14:59:38;6.05;;;3.25;;
55589;SDS011;41452;42.780;23.116;2023-08-17T15:02:03;6.00;;;3.05;;
55589;SDS011;41452;42.780;23.116;2023-08-17T15:04:29;4.90;;;3.30;;